sensor_id;sensor_type;location;lat;lon;timestamp;pressure;altitude;pressure_sealevel;temperature;humidity
68376;BME280;55318;52.068;5.188;2023-01-31T00:03:04;102503.0;;;5.36;84.04
68376;BME280;55318;52.068;5.188;2023-01-31T00:04:40;102500.0;;;5.29;84.24
68376;BME280;55318;52.068;5.188;2023-01-31T00:06:18;102502.0;;;5.36;84.23
68376;BME280;55318;52.068;5.188;2023-01-31T00:07:56;102501.0;;;5.26;84.63
68376;BME280;55318;52.068;5.188;2023-01-31T00:11:09;102499.0;;;5.48;83.99
68376;BME280;55318;52.068;5.188;2023-01-31T00:12:46;102501.0;;;5.57;83.45
68376;BME280;55318;52.068;5.188;2023-01-31T00:14:22;102499.0;;;5.5;83.81
68376;BME280;55318;52.068;5.188;2023-01-31T00:17:34;102493.0;;;5.56;83.83
68376;BME280;55318;52.068;5.188;2023-01-31T00:19:10;102494.0;;;5.64;83.36
68376;BME280;55318;52.068;5.188;2023-01-31T00:20:46;102492.0;;;5.73;83.48
68376;BME280;55318;52.068;5.188;2023-01-31T00:24:00;102481.0;;;5.83;82.96
68376;BME280;55318;52.068;5.188;2023-01-31T00:25:37;102476.0;;;5.69;83.2
68376;BME280;55318;52.068;5.188;2023-01-31T00:27:13;102481.0;;;5.46;83.85
68376;BME280;55318;52.068;5.188;2023-01-31T00:28:50;102476.0;;;5.6;83.92
68376;BME280;55318;52.068;5.188;2023-01-31T00:32:04;102458.99999999999;;;5.81;83.1
68376;BME280;55318;52.068;5.188;2023-01-31T00:33:42;102451.0;;;5.89;82.98
68376;BME280;55318;52.068;5.188;2023-01-31T00:35:19;102443.0;;;5.85;82.91
68376;BME280;55318;52.068;5.188;2023-01-31T00:38:32;102442.0;;;5.9;82.76
68376;BME280;55318;52.068;5.188;2023-01-31T00:40:10;102442.0;;;5.73;83.09
68376;BME280;55318;52.068;5.188;2023-01-31T00:41:47;102439.00000000001;;;5.86;82.85
68376;BME280;55318;52.068;5.188;2023-01-31T00:43:23;102433.99999999999;;;5.8;82.94
68376;BME280;55318;52.068;5.188;2023-01-31T00:46:35;102432.0;;;5.83;82.87
68376;BME280;55318;52.068;5.188;2023-01-31T00:48:11;102432.0;;;5.64;83.25
68376;BME280;55318;52.068;5.188;2023-01-31T00:49:47;102427.0;;;5.79;83.02
68376;BME280;55318;52.068;5.188;2023-01-31T00:53:02;102421.0;;;5.53;83.11
68376;BME280;55318;52.068;5.188;2023-01-31T00:54:39;102413.00000000001;;;5.52;83.46
68376;BME280;55318;52.068;5.188;2023-01-31T00:56:19;102414.00000000001;;;5.48;83.64
68376;BME280;55318;52.068;5.188;2023-01-31T00:59:34;102419.0;;;5.53;83.82
68376;BME280;55318;52.068;5.188;2023-01-31T01:01:12;102417.0;;;5.44;83.67
68376;BME280;55318;52.068;5.188;2023-01-31T01:02:50;102419.0;;;5.66;83.17
68376;BME280;55318;52.068;5.188;2023-01-31T01:04:26;102422.0;;;5.54;82.86
68376;BME280;55318;52.068;5.188;2023-01-31T01:07:41;102425.0;;;5.53;83.1
68376;BME280;55318;52.068;5.188;2023-01-31T01:09:18;102420.0;;;5.51;82.99
68376;BME280;55318;52.068;5.188;2023-01-31T01:10:54;102413.00000000001;;;5.41;83.28
68376;BME280;55318;52.068;5.188;2023-01-31T01:14:07;102422.0;;;5.49;82.9
68376;BME280;55318;52.068;5.188;2023-01-31T01:15:43;102419.0;;;5.49;82.79
68376;BME280;55318;52.068;5.188;2023-01-31T01:17:20;102415.00000000001;;;5.54;82.84
68376;BME280;55318;52.068;5.188;2023-01-31T01:18:56;102415.00000000001;;;5.5;83.01
68376;BME280;55318;52.068;5.188;2023-01-31T01:22:15;102418.0;;;5.41;83.46
68376;BME280;55318;52.068;5.188;2023-01-31T01:23:54;102419.0;;;5.46;83.51
68376;BME280;55318;52.068;5.188;2023-01-31T01:25:41;102421.0;;;5.55;83.5
68376;BME280;55318;52.068;5.188;2023-01-31T01:27:17;102411.99999999999;;;5.65;83.18
68376;BME280;55318;52.068;5.188;2023-01-31T01:30:31;102411.99999999999;;;5.68;82.93
68376;BME280;55318;52.068;5.188;2023-01-31T01:32:07;102415.00000000001;;;5.63;83.46
68376;BME280;55318;52.068;5.188;2023-01-31T01:33:44;102406.0;;;5.53;84.03
68376;BME280;55318;52.068;5.188;2023-01-31T01:36:59;102405.0;;;5.55;84.01
68376;BME280;55318;52.068;5.188;2023-01-31T01:38:36;102408.0;;;5.55;84.19
68376;BME280;55318;52.068;5.188;2023-01-31T01:40:12;102405.0;;;5.52;84.33
68376;BME280;55318;52.068;5.188;2023-01-31T01:43:43;102405.0;;;5.6;83.98
68376;BME280;55318;52.068;5.188;2023-01-31T01:45:20;102408.99999999999;;;5.49;84.7
68376;BME280;55318;52.068;5.188;2023-01-31T01:46:58;102409.99999999999;;;5.38;85.36
68376;BME280;55318;52.068;5.188;2023-01-31T01:48:35;102409.99999999999;;;5.58;85.07
68376;BME280;55318;52.068;5.188;2023-01-31T01:52:05;102417.0;;;5.52;85.49
68376;BME280;55318;52.068;5.188;2023-01-31T01:53:49;102415.00000000001;;;5.7;85.13
68376;BME280;55318;52.068;5.188;2023-01-31T01:55:32;102417.0;;;5.68;85.55
68376;BME280;55318;52.068;5.188;2023-01-31T01:57:11;102414.00000000001;;;5.74;85.48
68376;BME280;55318;52.068;5.188;2023-01-31T01:58:55;102419.0;;;5.63;85.95
68376;BME280;55318;52.068;5.188;2023-01-31T02:02:13;102424.0;;;5.75;85.88
68376;BME280;55318;52.068;5.188;2023-01-31T02:03:50;102426.0;;;5.82;85.96
68376;BME280;55318;52.068;5.188;2023-01-31T02:05:32;102423.0;;;5.86;86.0
68376;BME280;55318;52.068;5.188;2023-01-31T02:07:10;102426.0;;;5.78;86.55
68376;BME280;55318;52.068;5.188;2023-01-31T02:10:29;102424.0;;;5.88;86.47
68376;BME280;55318;52.068;5.188;2023-01-31T02:12:08;102417.0;;;5.81;86.84
68376;BME280;55318;52.068;5.188;2023-01-31T02:13:45;102415.00000000001;;;5.84;87.28
68376;BME280;55318;52.068;5.188;2023-01-31T02:15:24;102417.0;;;5.82;87.77
68376;BME280;55318;52.068;5.188;2023-01-31T02:18:36;102414.00000000001;;;5.99;87.22
68376;BME280;55318;52.068;5.188;2023-01-31T02:20:25;102417.0;;;5.98;87.65
68376;BME280;55318;52.068;5.188;2023-01-31T02:22:17;102420.0;;;6.12;87.28
68376;BME280;55318;52.068;5.188;2023-01-31T02:24:24;102422.0;;;6.22;87.19
68376;BME280;55318;52.068;5.188;2023-01-31T02:28:31;102421.0;;;6.33;86.58
68376;BME280;55318;52.068;5.188;2023-01-31T02:32:19;102411.99999999999;;;6.3;86.67
68376;BME280;55318;52.068;5.188;2023-01-31T02:34:42;102414.00000000001;;;6.38;86.57
68376;BME280;55318;52.068;5.188;2023-01-31T02:40:10;102417.0;;;6.38;86.2
68376;BME280;55318;52.068;5.188;2023-01-31T02:41:56;102417.0;;;6.51;86.14
68376;BME280;55318;52.068;5.188;2023-01-31T02:45:04;102404.0;;;6.43;86.72
68376;BME280;55318;52.068;5.188;2023-01-31T02:46:52;102402.0;;;6.51;86.46
68376;BME280;55318;52.068;5.188;2023-01-31T02:48:40;102394.0;;;6.55;86.18
68376;BME280;55318;52.068;5.188;2023-01-31T02:50:25;102398.0;;;6.46;86.27
68376;BME280;55318;52.068;5.188;2023-01-31T02:52:25;102399.0;;;6.54;86.79
68376;BME280;55318;52.068;5.188;2023-01-31T02:54:08;102403.0;;;6.46;87.05
68376;BME280;55318;52.068;5.188;2023-01-31T02:56:26;102389.0;;;6.62;86.52
68376;BME280;55318;52.068;5.188;2023-01-31T02:58:07;102384.0;;;6.58;86.43
68376;BME280;55318;52.068;5.188;2023-01-31T02:59:47;102384.0;;;6.53;86.94
68376;BME280;55318;52.068;5.188;2023-01-31T03:03:07;102383.0;;;6.54;87.08
68376;BME280;55318;52.068;5.188;2023-01-31T03:04:48;102392.0;;;6.62;86.66
68376;BME280;55318;52.068;5.188;2023-01-31T03:06:47;102389.0;;;6.54;87.0
68376;BME280;55318;52.068;5.188;2023-01-31T03:08:30;102393.0;;;6.7;86.62
68376;BME280;55318;52.068;5.188;2023-01-31T03:10:14;102386.0;;;6.69;86.62
68376;BME280;55318;52.068;5.188;2023-01-31T03:12:03;102397.0;;;6.66;86.53
68376;BME280;55318;52.068;5.188;2023-01-31T03:18:05;102390.0;;;6.65;86.69
68376;BME280;55318;52.068;5.188;2023-01-31T03:19:48;102387.0;;;6.69;86.9
68376;BME280;55318;52.068;5.188;2023-01-31T03:21:32;102371.0;;;6.68;86.87
68376;BME280;55318;52.068;5.188;2023-01-31T03:23:14;102367.0;;;6.73;86.99
68376;BME280;55318;52.068;5.188;2023-01-31T03:24:53;102368.0;;;6.77;86.64
68376;BME280;55318;52.068;5.188;2023-01-31T03:26:32;102373.0;;;6.5;88.15
68376;BME280;55318;52.068;5.188;2023-01-31T03:29:52;102370.0;;;6.7;87.35
68376;BME280;55318;52.068;5.188;2023-01-31T03:31:36;102360.0;;;6.76;87.3
68376;BME280;55318;52.068;5.188;2023-01-31T03:33:19;102356.0;;;6.83;86.96
68376;BME280;55318;52.068;5.188;2023-01-31T03:34:59;102355.0;;;6.78;87.23
68376;BME280;55318;52.068;5.188;2023-01-31T03:38:24;102358.0;;;6.68;87.59
68376;BME280;55318;52.068;5.188;2023-01-31T03:40:05;102356.0;;;6.52;88.32
68376;BME280;55318;52.068;5.188;2023-01-31T03:41:53;102356.0;;;6.67;87.95
68376;BME280;55318;52.068;5.188;2023-01-31T03:43:38;102352.0;;;6.68;87.91
68376;BME280;55318;52.068;5.188;2023-01-31T03:47:06;102346.0;;;6.61;88.21
68376;BME280;55318;52.068;5.188;2023-01-31T03:48:49;102334.0;;;6.64;88.47
68376;BME280;55318;52.068;5.188;2023-01-31T03:50:33;102336.0;;;6.59;88.29
68376;BME280;55318;52.068;5.188;2023-01-31T03:52:15;102336.0;;;6.7;88.3
68376;BME280;55318;52.068;5.188;2023-01-31T03:53:57;102340.0;;;6.66;88.23
68376;BME280;55318;52.068;5.188;2023-01-31T03:57:23;102334.0;;;6.49;89.47
68376;BME280;55318;52.068;5.188;2023-01-31T03:59:05;102333.0;;;6.63;89.17
68376;BME280;55318;52.068;5.188;2023-01-31T04:00:44;102338.0;;;6.73;88.56
68376;BME280;55318;52.068;5.188;2023-01-31T04:02:24;102336.0;;;6.8;88.31
68376;BME280;55318;52.068;5.188;2023-01-31T04:05:50;102335.0;;;6.82;88.54
68376;BME280;55318;52.068;5.188;2023-01-31T04:07:26;102335.0;;;6.75;88.69
68376;BME280;55318;52.068;5.188;2023-01-31T04:09:04;102332.0;;;6.79;88.94
68376;BME280;55318;52.068;5.188;2023-01-31T04:10:41;102336.0;;;6.83;88.82
68376;BME280;55318;52.068;5.188;2023-01-31T04:13:55;102330.0;;;6.76;88.65
68376;BME280;55318;52.068;5.188;2023-01-31T04:15:31;102320.0;;;6.74;89.16
68376;BME280;55318;52.068;5.188;2023-01-31T04:17:08;102326.0;;;6.67;89.39
68376;BME280;55318;52.068;5.188;2023-01-31T04:20:21;102321.0;;;6.59;90.03
68376;BME280;55318;52.068;5.188;2023-01-31T04:21:56;102319.0;;;6.68;90.08
68376;BME280;55318;52.068;5.188;2023-01-31T04:23:33;102310.0;;;6.59;90.41
68376;BME280;55318;52.068;5.188;2023-01-31T04:25:09;102305.0;;;6.73;90.2
68376;BME280;55318;52.068;5.188;2023-01-31T04:28:22;102302.0;;;6.59;90.83
68376;BME280;55318;52.068;5.188;2023-01-31T04:29:58;102306.0;;;6.74;90.32
68376;BME280;55318;52.068;5.188;2023-01-31T04:31:34;102308.0;;;6.69;90.94
68376;BME280;55318;52.068;5.188;2023-01-31T04:34:46;102305.0;;;6.65;91.31
68376;BME280;55318;52.068;5.188;2023-01-31T04:36:23;102301.0;;;6.68;91.3
68376;BME280;55318;52.068;5.188;2023-01-31T04:38:00;102301.0;;;6.64;91.84
68376;BME280;55318;52.068;5.188;2023-01-31T04:41:11;102307.0;;;6.65;91.97
68376;BME280;55318;52.068;5.188;2023-01-31T04:42:49;102309.0;;;6.7;92.11
68376;BME280;55318;52.068;5.188;2023-01-31T04:44:25;102307.0;;;6.86;91.35
68376;BME280;55318;52.068;5.188;2023-01-31T04:46:02;102308.0;;;6.83;91.31
68376;BME280;55318;52.068;5.188;2023-01-31T04:49:14;102305.0;;;6.79;91.9
68376;BME280;55318;52.068;5.188;2023-01-31T04:50:51;102299.0;;;6.79;91.53
68376;BME280;55318;52.068;5.188;2023-01-31T04:52:27;102286.0;;;6.6;92.55
68376;BME280;55318;52.068;5.188;2023-01-31T04:55:39;102283.0;;;6.64;92.78
68376;BME280;55318;52.068;5.188;2023-01-31T04:57:15;102291.0;;;6.74;92.37
68376;BME280;55318;52.068;5.188;2023-01-31T04:58:52;102283.0;;;6.89;91.76
68376;BME280;55318;52.068;5.188;2023-01-31T05:02:05;102294.0;;;6.84;91.96
68376;BME280;55318;52.068;5.188;2023-01-31T05:03:42;102292.0;;;6.8;92.3
68376;BME280;55318;52.068;5.188;2023-01-31T05:05:18;102287.0;;;6.7;93.01
68376;BME280;55318;52.068;5.188;2023-01-31T05:06:55;102286.0;;;6.82;92.26
68376;BME280;55318;52.068;5.188;2023-01-31T05:10:08;102285.0;;;6.89;91.99
68376;BME280;55318;52.068;5.188;2023-01-31T05:11:45;102283.0;;;6.9;92.19
68376;BME280;55318;52.068;5.188;2023-01-31T05:13:23;102280.0;;;6.7;92.85
68376;BME280;55318;52.068;5.188;2023-01-31T05:16:37;102280.0;;;6.82;92.61
68376;BME280;55318;52.068;5.188;2023-01-31T05:18:13;102282.0;;;6.84;92.56
68376;BME280;55318;52.068;5.188;2023-01-31T05:19:49;102276.0;;;6.89;92.1
68376;BME280;55318;52.068;5.188;2023-01-31T05:23:01;102274.0;;;7.03;91.62
68376;BME280;55318;52.068;5.188;2023-01-31T05:24:37;102266.0;;;6.97;91.62
68376;BME280;55318;52.068;5.188;2023-01-31T05:26:14;102275.0;;;7.04;91.45
68376;BME280;55318;52.068;5.188;2023-01-31T05:29:29;102277.0;;;7.01;91.54
68376;BME280;55318;52.068;5.188;2023-01-31T05:31:07;102261.0;;;6.77;92.34
68376;BME280;55318;52.068;5.188;2023-01-31T05:32:45;102264.0;;;6.97;91.94
68376;BME280;55318;52.068;5.188;2023-01-31T05:34:23;102262.0;;;6.77;92.5
68376;BME280;55318;52.068;5.188;2023-01-31T05:37:37;102262.0;;;6.82;92.56
68376;BME280;55318;52.068;5.188;2023-01-31T05:39:13;102258.0;;;6.95;92.25
68376;BME280;55318;52.068;5.188;2023-01-31T05:40:49;102260.0;;;6.87;92.28
68376;BME280;55318;52.068;5.188;2023-01-31T05:44:02;102264.0;;;7.01;92.04
68376;BME280;55318;52.068;5.188;2023-01-31T05:45:40;102261.0;;;6.96;92.46
68376;BME280;55318;52.068;5.188;2023-01-31T05:47:16;102259.0;;;7.12;91.64
68376;BME280;55318;52.068;5.188;2023-01-31T05:48:52;102256.0;;;6.92;92.17
68376;BME280;55318;52.068;5.188;2023-01-31T05:52:05;102250.0;;;7.15;91.72
68376;BME280;55318;52.068;5.188;2023-01-31T05:53:42;102255.0;;;7.04;91.97
68376;BME280;55318;52.068;5.188;2023-01-31T05:55:18;102255.0;;;7.19;91.77
68376;BME280;55318;52.068;5.188;2023-01-31T05:58:31;102248.0;;;7.16;91.66
68376;BME280;55318;52.068;5.188;2023-01-31T06:00:08;102255.0;;;6.95;92.51
68376;BME280;55318;52.068;5.188;2023-01-31T06:01:45;102260.0;;;7.12;91.97
68376;BME280;55318;52.068;5.188;2023-01-31T06:04:59;102269.0;;;7.02;92.31
68376;BME280;55318;52.068;5.188;2023-01-31T06:06:35;102261.0;;;7.12;91.99
68376;BME280;55318;52.068;5.188;2023-01-31T06:08:11;102262.0;;;7.21;91.73
68376;BME280;55318;52.068;5.188;2023-01-31T06:09:48;102256.0;;;7.28;91.57
68376;BME280;55318;52.068;5.188;2023-01-31T06:13:00;102252.0;;;7.21;91.72
68376;BME280;55318;52.068;5.188;2023-01-31T06:14:36;102238.0;;;7.13;91.89
68376;BME280;55318;52.068;5.188;2023-01-31T06:16:12;102233.0;;;7.21;91.64
68376;BME280;55318;52.068;5.188;2023-01-31T06:19:25;102231.0;;;7.18;91.83
68376;BME280;55318;52.068;5.188;2023-01-31T06:21:01;102234.0;;;7.21;91.54
68376;BME280;55318;52.068;5.188;2023-01-31T06:22:38;102231.0;;;7.12;91.63
68376;BME280;55318;52.068;5.188;2023-01-31T06:25:53;102239.0;;;7.28;90.96
68376;BME280;55318;52.068;5.188;2023-01-31T06:27:30;102234.0;;;7.07;91.64
68376;BME280;55318;52.068;5.188;2023-01-31T06:29:08;102239.0;;;7.19;91.37
68376;BME280;55318;52.068;5.188;2023-01-31T06:30:44;102240.0;;;7.01;91.58
68376;BME280;55318;52.068;5.188;2023-01-31T06:33:57;102236.0;;;7.1;91.78
68376;BME280;55318;52.068;5.188;2023-01-31T06:35:34;102233.0;;;7.02;91.81
68376;BME280;55318;52.068;5.188;2023-01-31T06:37:11;102239.0;;;7.16;91.32
68376;BME280;55318;52.068;5.188;2023-01-31T06:40:25;102235.0;;;7.21;90.99
68376;BME280;55318;52.068;5.188;2023-01-31T06:42:02;102230.0;;;7.21;90.97
68376;BME280;55318;52.068;5.188;2023-01-31T06:43:37;102226.0;;;7.22;90.82
68376;BME280;55318;52.068;5.188;2023-01-31T06:45:15;102208.0;;;7.21;90.66
68376;BME280;55318;52.068;5.188;2023-01-31T06:48:28;102205.0;;;7.24;90.43
68376;BME280;55318;52.068;5.188;2023-01-31T06:50:05;102201.0;;;7.09;90.65
68376;BME280;55318;52.068;5.188;2023-01-31T06:51:41;102203.0;;;7.19;91.06
68376;BME280;55318;52.068;5.188;2023-01-31T06:54:53;102200.0;;;7.2;91.05
68376;BME280;55318;52.068;5.188;2023-01-31T06:56:29;102205.0;;;7.21;90.88
68376;BME280;55318;52.068;5.188;2023-01-31T06:58:05;102209.0;;;7.13;91.59
68376;BME280;55318;52.068;5.188;2023-01-31T07:01:18;102200.0;;;7.32;90.88
68376;BME280;55318;52.068;5.188;2023-01-31T07:02:55;102200.0;;;6.99;91.83
68376;BME280;55318;52.068;5.188;2023-01-31T07:04:32;102203.0;;;7.32;91.12
68376;BME280;55318;52.068;5.188;2023-01-31T07:07:45;102197.0;;;7.38;90.54
68376;BME280;55318;52.068;5.188;2023-01-31T07:09:22;102193.0;;;7.43;90.3
68376;BME280;55318;52.068;5.188;2023-01-31T07:11:01;102187.0;;;7.36;90.5
68376;BME280;55318;52.068;5.188;2023-01-31T07:12:38;102176.0;;;7.34;90.49
68376;BME280;55318;52.068;5.188;2023-01-31T07:15:51;102171.0;;;7.5;90.02
68376;BME280;55318;52.068;5.188;2023-01-31T07:17:27;102174.0;;;7.45;90.12
68376;BME280;55318;52.068;5.188;2023-01-31T07:19:03;102174.0;;;7.48;90.23
68376;BME280;55318;52.068;5.188;2023-01-31T07:22:17;102173.0;;;7.22;91.1
68376;BME280;55318;52.068;5.188;2023-01-31T07:23:54;102176.0;;;7.43;90.47
68376;BME280;55318;52.068;5.188;2023-01-31T07:25:33;102180.0;;;7.38;90.34
68376;BME280;55318;52.068;5.188;2023-01-31T07:27:11;102187.0;;;7.42;90.42
68376;BME280;55318;52.068;5.188;2023-01-31T07:30:24;102181.0;;;7.46;89.94
68376;BME280;55318;52.068;5.188;2023-01-31T07:32:01;102181.0;;;7.45;90.27
68376;BME280;55318;52.068;5.188;2023-01-31T07:33:38;102182.0;;;7.37;90.79
68376;BME280;55318;52.068;5.188;2023-01-31T07:36:52;102177.0;;;7.41;90.5
68376;BME280;55318;52.068;5.188;2023-01-31T07:38:29;102169.0;;;7.32;91.24
68376;BME280;55318;52.068;5.188;2023-01-31T07:40:07;102166.0;;;7.4;91.15
68376;BME280;55318;52.068;5.188;2023-01-31T07:43:20;102175.0;;;7.52;90.44
68376;BME280;55318;52.068;5.188;2023-01-31T07:44:56;102174.0;;;7.54;90.67
68376;BME280;55318;52.068;5.188;2023-01-31T07:46:32;102172.0;;;7.59;90.36
68376;BME280;55318;52.068;5.188;2023-01-31T07:48:09;102171.0;;;7.46;91.19
68376;BME280;55318;52.068;5.188;2023-01-31T07:51:21;102165.0;;;7.6;90.75
68376;BME280;55318;52.068;5.188;2023-01-31T07:52:57;102155.0;;;7.6;90.93
68376;BME280;55318;52.068;5.188;2023-01-31T07:54:34;102159.0;;;7.44;91.1
68376;BME280;55318;52.068;5.188;2023-01-31T07:57:49;102156.0;;;7.47;91.28
68376;BME280;55318;52.068;5.188;2023-01-31T07:59:25;102153.0;;;7.6;91.17
68376;BME280;55318;52.068;5.188;2023-01-31T08:04:15;102139.0;;;7.7;90.58
68376;BME280;55318;52.068;5.188;2023-01-31T08:05:52;102126.0;;;7.61;90.51
68376;BME280;55318;52.068;5.188;2023-01-31T08:07:28;102131.0;;;7.65;90.68
68376;BME280;55318;52.068;5.188;2023-01-31T08:09:05;102136.0;;;7.66;90.59
68376;BME280;55318;52.068;5.188;2023-01-31T08:12:19;102137.0;;;7.66;90.43
68376;BME280;55318;52.068;5.188;2023-01-31T08:13:55;102139.0;;;7.59;90.84
68376;BME280;55318;52.068;5.188;2023-01-31T08:15:31;102134.0;;;7.62;90.81
68376;BME280;55318;52.068;5.188;2023-01-31T08:18:45;102133.0;;;7.81;89.99
68376;BME280;55318;52.068;5.188;2023-01-31T08:20:22;102125.0;;;7.74;89.87
68376;BME280;55318;52.068;5.188;2023-01-31T08:21:58;102125.0;;;7.77;89.88
68376;BME280;55318;52.068;5.188;2023-01-31T08:23:37;102125.0;;;7.79;89.48
68376;BME280;55318;52.068;5.188;2023-01-31T08:26:49;102114.0;;;7.78;89.62
68376;BME280;55318;52.068;5.188;2023-01-31T08:28:26;102120.0;;;7.69;89.62
68376;BME280;55318;52.068;5.188;2023-01-31T08:30:02;102106.0;;;7.68;89.68
68376;BME280;55318;52.068;5.188;2023-01-31T08:33:16;102105.0;;;7.51;90.62
68376;BME280;55318;52.068;5.188;2023-01-31T08:34:52;102106.0;;;7.68;90.12
68376;BME280;55318;52.068;5.188;2023-01-31T08:36:30;102105.0;;;7.62;90.08
68376;BME280;55318;52.068;5.188;2023-01-31T08:39:43;102106.0;;;7.64;89.83
68376;BME280;55318;52.068;5.188;2023-01-31T08:41:21;102103.0;;;7.53;90.1
68376;BME280;55318;52.068;5.188;2023-01-31T08:42:59;102105.0;;;7.34;90.68
68376;BME280;55318;52.068;5.188;2023-01-31T08:44:37;102102.0;;;7.48;90.67
68376;BME280;55318;52.068;5.188;2023-01-31T08:47:52;102098.0;;;7.61;90.45
68376;BME280;55318;52.068;5.188;2023-01-31T08:49:29;102106.0;;;7.74;89.83
68376;BME280;55318;52.068;5.188;2023-01-31T08:51:06;102103.0;;;7.72;90.07
68376;BME280;55318;52.068;5.188;2023-01-31T08:54:20;102110.0;;;7.75;89.72
68376;BME280;55318;52.068;5.188;2023-01-31T08:57:34;102118.0;;;7.67;89.76
68376;BME280;55318;52.068;5.188;2023-01-31T08:59:10;102111.0;;;7.69;90.25
68376;BME280;55318;52.068;5.188;2023-01-31T09:02:23;102107.0;;;7.65;90.57
68376;BME280;55318;52.068;5.188;2023-01-31T09:03:59;102109.0;;;7.74;90.47
68376;BME280;55318;52.068;5.188;2023-01-31T09:05:35;102119.0;;;7.84;90.27
68376;BME280;55318;52.068;5.188;2023-01-31T09:08:48;102117.0;;;7.84;90.39
68376;BME280;55318;52.068;5.188;2023-01-31T09:10:24;102120.0;;;7.76;90.17
68376;BME280;55318;52.068;5.188;2023-01-31T09:12:02;102109.0;;;7.73;90.18
68376;BME280;55318;52.068;5.188;2023-01-31T09:15:14;102109.0;;;7.77;89.98
68376;BME280;55318;52.068;5.188;2023-01-31T09:16:51;102108.0;;;7.73;90.04
68376;BME280;55318;52.068;5.188;2023-01-31T09:18:28;102112.0;;;7.73;89.96
68376;BME280;55318;52.068;5.188;2023-01-31T09:20:07;102106.0;;;7.79;89.96
68376;BME280;55318;52.068;5.188;2023-01-31T09:23:20;102103.0;;;7.76;90.56
68376;BME280;55318;52.068;5.188;2023-01-31T09:24:58;102109.0;;;7.78;90.37
68376;BME280;55318;52.068;5.188;2023-01-31T09:26:35;102105.0;;;7.79;90.29
68376;BME280;55318;52.068;5.188;2023-01-31T09:29:47;102101.0;;;7.77;90.4
68376;BME280;55318;52.068;5.188;2023-01-31T09:31:23;102095.0;;;7.68;90.65
68376;BME280;55318;52.068;5.188;2023-01-31T09:33:00;102096.0;;;7.83;90.41
68376;BME280;55318;52.068;5.188;2023-01-31T09:36:14;102088.0;;;7.86;90.4
68376;BME280;55318;52.068;5.188;2023-01-31T09:37:52;102087.0;;;7.81;90.34
68376;BME280;55318;52.068;5.188;2023-01-31T09:39:28;102078.0;;;7.85;90.3
68376;BME280;55318;52.068;5.188;2023-01-31T09:41:09;102087.0;;;7.88;90.57
68376;BME280;55318;52.068;5.188;2023-01-31T09:44:40;102087.0;;;7.79;90.61
68376;BME280;55318;52.068;5.188;2023-01-31T09:46:20;102083.0;;;7.79;90.38
68376;BME280;55318;52.068;5.188;2023-01-31T09:48:00;102080.0;;;7.85;90.76
68376;BME280;55318;52.068;5.188;2023-01-31T09:49:47;102093.0;;;7.87;90.73
68376;BME280;55318;52.068;5.188;2023-01-31T09:53:03;102082.0;;;7.82;91.01
68376;BME280;55318;52.068;5.188;2023-01-31T09:54:39;102071.0;;;7.89;90.94
68376;BME280;55318;52.068;5.188;2023-01-31T09:56:23;102073.0;;;7.9;91.15
68376;BME280;55318;52.068;5.188;2023-01-31T09:58:13;102077.0;;;8.01;90.83
68376;BME280;55318;52.068;5.188;2023-01-31T10:00:02;102071.0;;;7.98;90.91
68376;BME280;55318;52.068;5.188;2023-01-31T10:03:41;102084.0;;;8.1;90.88
68376;BME280;55318;52.068;5.188;2023-01-31T10:05:58;102080.0;;;8.23;90.49
68376;BME280;55318;52.068;5.188;2023-01-31T10:07:44;102086.0;;;8.22;90.33
68376;BME280;55318;52.068;5.188;2023-01-31T10:09:31;102090.0;;;8.08;90.86
68376;BME280;55318;52.068;5.188;2023-01-31T10:11:11;102088.0;;;8.24;90.72
68376;BME280;55318;52.068;5.188;2023-01-31T10:12:53;102080.0;;;8.14;91.0
68376;BME280;55318;52.068;5.188;2023-01-31T10:14:35;102080.0;;;8.2;90.81
68376;BME280;55318;52.068;5.188;2023-01-31T10:18:05;102090.0;;;8.23;90.98
68376;BME280;55318;52.068;5.188;2023-01-31T10:19:50;102078.0;;;8.1;91.36
68376;BME280;55318;52.068;5.188;2023-01-31T10:21:31;102074.0;;;8.31;90.72
68376;BME280;55318;52.068;5.188;2023-01-31T10:23:15;102071.0;;;8.31;90.75
68376;BME280;55318;52.068;5.188;2023-01-31T10:25:00;102088.0;;;8.2;91.0
68376;BME280;55318;52.068;5.188;2023-01-31T10:28:42;102083.0;;;8.3;91.01
68376;BME280;55318;52.068;5.188;2023-01-31T10:30:27;102073.0;;;8.51;90.27
68376;BME280;55318;52.068;5.188;2023-01-31T10:32:17;102062.0;;;8.48;90.31
68376;BME280;55318;52.068;5.188;2023-01-31T10:33:59;102064.0;;;8.44;90.44
68376;BME280;55318;52.068;5.188;2023-01-31T10:35:39;102073.0;;;8.51;90.25
68376;BME280;55318;52.068;5.188;2023-01-31T10:39:16;102076.0;;;8.43;90.4
68376;BME280;55318;52.068;5.188;2023-01-31T10:40:58;102069.0;;;8.64;89.81
68376;BME280;55318;52.068;5.188;2023-01-31T10:42:44;102060.0;;;8.53;90.2
68376;BME280;55318;52.068;5.188;2023-01-31T10:44:33;102063.0;;;8.48;90.76
68376;BME280;55318;52.068;5.188;2023-01-31T10:46:21;102050.0;;;8.53;90.45
68376;BME280;55318;52.068;5.188;2023-01-31T10:48:12;102042.0;;;8.56;90.72
68376;BME280;55318;52.068;5.188;2023-01-31T10:51:38;102046.0;;;8.6;90.69
68376;BME280;55318;52.068;5.188;2023-01-31T10:53:43;102048.0;;;8.63;90.56
68376;BME280;55318;52.068;5.188;2023-01-31T10:55:35;102049.0;;;8.73;90.55
68376;BME280;55318;52.068;5.188;2023-01-31T10:57:30;102045.0;;;8.86;89.97
68376;BME280;55318;52.068;5.188;2023-01-31T10:59:11;102052.0;;;8.93;89.76
68376;BME280;55318;52.068;5.188;2023-01-31T11:00:53;102043.0;;;8.84;89.76
68376;BME280;55318;52.068;5.188;2023-01-31T11:04:25;102055.0;;;8.82;89.83
68376;BME280;55318;52.068;5.188;2023-01-31T11:06:05;102055.0;;;8.85;89.56
68376;BME280;55318;52.068;5.188;2023-01-31T11:07:41;102058.0;;;9.08;89.0
68376;BME280;55318;52.068;5.188;2023-01-31T11:09:18;102059.0;;;9.26;88.4
68376;BME280;55318;52.068;5.188;2023-01-31T11:12:40;102053.0;;;8.99;89.35
68376;BME280;55318;52.068;5.188;2023-01-31T11:14:29;102059.0;;;9.08;89.22
68376;BME280;55318;52.068;5.188;2023-01-31T11:16:08;102058.0;;;9.09;89.17
68376;BME280;55318;52.068;5.188;2023-01-31T11:17:46;102050.0;;;9.01;89.29
68376;BME280;55318;52.068;5.188;2023-01-31T11:19:28;102063.0;;;8.93;90.29
68376;BME280;55318;52.068;5.188;2023-01-31T11:22:54;102059.0;;;9.07;90.09
68376;BME280;55318;52.068;5.188;2023-01-31T11:24:33;102056.0;;;9.02;90.75